Zim Chicago — A8SI9 — position and weather

sailwx.info

Track history (hours):
 
Tides and Currents Weather Stations Pressure Air Temp Water Temp Dewpoint Dewpoint Depression Visibility Wind Speed Wind Dir Waves Ship Positions

Zim Chicago

Last reported at 2017-May-28 17:42 UTC. Time now 2017-Jun-23 11:55 UTC.
Position N 09°15' W 079°54'.
Warning: this ship's position is 25 days out of date.

Length 334 m; draft 11.4 m.

Type: Cargo ship. MMSI: 636014223.

Date/timePositionNaut miles runAvg speedWind from/ knotsBaromVisibWave heightAir tempDewpointWater temp
2017-May-28 17:42N 09°15' W 079°54'0 0.3
2017-May-28 17:29N 09°15' W 079°54'0 0.1
2017-May-28 16:59N 09°15' W 079°54'0 0.1
2017-May-28 16:29N 09°15' W 079°54'0 0.0
2017-May-28 15:56N 09°15' W 079°54'12 0.7
2017-May-27 22:31N 09°26' W 079°57'0 0.1
2017-May-27 22:30N 09°26' W 079°57'1 2.8
2017-May-27 22:00N 09°28' W 079°57'3 5.8
2017-May-27 21:30N 09°30' W 079°55'4 8.4
2017-May-27 21:00N 09°34' W 079°53'510.5
2017-May-27 20:30N 09°39' W 079°52'  
2017-May-21 09:08N 39°23' W 072°29'717.6
2017-May-21 08:45N 39°28' W 072°36'917.4
2017-May-21 08:15N 39°33' W 072°44'917.9
2017-May-21 07:46N 39°40' W 072°52'717.9
2017-May-21 07:24N 39°44' W 072°58'1418.0
2017-May-21 06:37N 39°55' W 073°10'218.2
2017-May-21 06:29N 39°56' W 073°12'918.1
2017-May-21 06:00N 40°03' W 073°20'918.0
2017-May-21 05:30N 40°09' W 073°29'1018.2
2017-May-21 04:58N 40°16' W 073°37'918.9
2017-May-21 04:30N 40°23' W 073°45'713.3
2017-May-21 04:00N 40°28' W 073°50'917.6
2017-May-21 03:30N 40°32' W 074°01'816.0
2017-May-21 03:00N 40°39' W 074°05'3 6.2
2017-May-21 02:30N 40°39' W 074°09'2 3.2
2017-May-21 02:00N 40°40' W 074°08'0 0.0
2017-May-21 01:28N 40°40' W 074°08'0 0.0
2017-May-21 00:58N 40°40' W 074°08'0 0.0
2017-May-21 00:28N 40°40' W 074°08'0 0.0
2017-May-20 23:58N 40°40' W 074°08'0 0.0
2017-May-20 23:28N 40°40' W 074°08'0 0.0
2017-May-20 22:58N 40°40' W 074°08'0 0.0
2017-May-20 22:28N 40°40' W 074°08'0 0.0
2017-May-20 21:58N 40°40' W 074°08'0 0.0
2017-May-20 21:28N 40°40' W 074°08'0 0.0
2017-May-20 20:58N 40°40' W 074°08'0 0.0
2017-May-20 20:28N 40°40' W 074°08'0 0.0
2017-May-20 19:58N 40°40' W 074°08'0 0.0
2017-May-20 19:28N 40°40' W 074°08'0 0.0
2017-May-20 18:58N 40°40' W 074°08'0 0.0
2017-May-20 18:28N 40°40' W 074°08'0 0.0
2017-May-20 17:58N 40°40' W 074°08'0 0.0
2017-May-20 17:28N 40°40' W 074°08'0 0.0
2017-May-20 16:58N 40°40' W 074°08'0 0.0
2017-May-20 16:28N 40°40' W 074°08'0 0.0
2017-May-20 15:58N 40°40' W 074°08'0 0.0
2017-May-20 15:28N 40°40' W 074°08'0 0.0
2017-May-20 14:58N 40°40' W 074°08'0 0.0
2017-May-20 14:28N 40°40' W 074°08'0 0.0
2017-May-20 13:28N 40°40' W 074°08'0 0.0
2017-May-20 12:58N 40°40' W 074°08'0 0.0
2017-May-20 12:28N 40°40' W 074°08'0 0.0
2017-May-20 11:58N 40°40' W 074°08'0 0.0
2017-May-20 11:28N 40°40' W 074°08'0 0.0
2017-May-20 10:58N 40°40' W 074°08'0 0.0
2017-May-20 10:28N 40°40' W 074°08'0 0.0
2017-May-20 09:58N 40°40' W 074°08'0 0.0
2017-May-20 09:28N 40°40' W 074°08'0 0.0
2017-May-20 08:58N 40°40' W 074°08'0 0.0
2017-May-20 08:28N 40°40' W 074°08'0 0.0
2017-May-20 07:58N 40°40' W 074°08'0 0.0
2017-May-20 07:28N 40°40' W 074°08'0 0.0
2017-May-20 06:58N 40°40' W 074°08'0 0.0
2017-May-20 06:28N 40°40' W 074°08'0 0.0
2017-May-20 05:58N 40°40' W 074°08'0 0.0
2017-May-20 05:28N 40°40' W 074°08'0 0.0
2017-May-20 04:58N 40°40' W 074°08'0 0.0
2017-May-20 04:28N 40°40' W 074°08'0 0.0
2017-May-20 03:58N 40°40' W 074°08'0 0.0
2017-May-20 03:28N 40°40' W 074°08'0 0.0
2017-May-20 02:58N 40°40' W 074°08'0 0.0
2017-May-20 02:28N 40°40' W 074°08'0 0.0
2017-May-20 01:58N 40°40' W 074°08'0 0.0
2017-May-20 01:28N 40°40' W 074°08'0 0.0
2017-May-20 00:58N 40°40' W 074°08'0 0.0
2017-May-20 00:28N 40°40' W 074°08'0 0.0
2017-May-19 23:58N 40°40' W 074°08'0 0.0
2017-May-19 23:28N 40°40' W 074°08'0 0.0
2017-May-19 22:58N 40°40' W 074°08'0 0.0
2017-May-19 22:28N 40°40' W 074°08'0 0.0
2017-May-19 22:01N 40°40' W 074°08'2 3.6
2017-May-19 21:30N 40°39' W 074°09'3 6.4
2017-May-19 21:01N 40°39' W 074°05'4 8.3
2017-May-19 20:31N 40°35' W 074°02'5 9.4
2017-May-19 20:01N 40°31' W 073°59'3 6.6
2017-May-19 19:31N 40°30' W 073°56'611.6
2017-May-19 19:00N 40°27' W 073°49'5 9.0
2017-May-19 18:30N 40°23' W 073°47'510.4
2017-May-19 18:00N 40°17' W 073°46'612.4
2017-May-19 17:30N 40°11' W 073°45'713.8
2017-May-19 17:00N 40°05' W 073°44'917.7
2017-May-19 16:29N 39°55' W 073°42'1020.2
2017-May-19 16:00N 39°46' W 073°41'1120.5
2017-May-19 15:29N 39°35' W 073°42'1220.8
2017-May-19 14:55N 39°23' W 073°44'2120.4
2017-May-19 13:52N 39°03' W 073°51'820.3
2017-May-19 13:29N 38°56' W 073°55'1020.5
2017-May-19 13:01N 38°47' W 074°01'1520.6
2017-May-19 12:16N 38°33' W 074°10'620.5
2017-May-19 11:58N 38°28' W 074°13'12020.5
2017-May-19 06:08N 36°49' W 075°37'521.0
2017-May-19 05:54N 36°49' W 075°44'819.8
2017-May-19 05:30N 36°52' W 075°52'917.0
2017-May-19 05:00N 36°57' W 076°01'713.0
2017-May-19 04:30N 36°59' W 076°09'912.9
2017-May-19 03:49N 36°58' W 076°20'3 9.5
2017-May-19 03:30N 36°55' W 076°20'4 7.4
2017-May-19 03:00N 36°52' W 076°19'0 0.5
2017-May-19 02:28N 36°51' W 076°19'0 0.0
2017-May-19 01:58N 36°51' W 076°19'0 0.0
2017-May-19 01:28N 36°51' W 076°19'0 0.0
2017-May-19 00:58N 36°51' W 076°19'0 0.0
2017-May-19 00:28N 36°51' W 076°19'0 0.0
2017-May-18 23:58N 36°51' W 076°19'0 0.0
2017-May-18 23:28N 36°51' W 076°19'0 0.0
2017-May-18 22:58N 36°51' W 076°19'0 0.0
2017-May-18 22:28N 36°51' W 076°19'0 0.0
2017-May-18 21:55N 36°51' W 076°19'0 0.0
2017-May-18 21:28N 36°51' W 076°19'0 0.0
2017-May-18 20:58N 36°51' W 076°19'0 0.0
2017-May-18 20:28N 36°51' W 076°19'0 0.0
2017-May-18 19:58N 36°51' W 076°19'0 0.0
2017-May-18 19:28N 36°51' W 076°19'0 0.0
2017-May-18 18:58N 36°51' W 076°19'0 0.0
2017-May-18 18:28N 36°51' W 076°19'0 0.0
2017-May-18 17:58N 36°51' W 076°19'  
Track history (hours):
 
Tides and Currents Weather Stations Pressure Air Temp Water Temp Dewpoint Dewpoint Depression Visibility Wind Speed Wind Dir Waves Ship Positions

Zim Chicago

Last reported at 2017-May-28 17:42 UTC. Time now 2017-Jun-23 11:55 UTC.
Position N 09°15' W 079°54'.
Warning: this ship's position is 25 days out of date.

Length 334 m; draft 11.4 m.

Type: Cargo ship. MMSI: 636014223.

Date/timePositionNaut miles runAvg speedWind from/ knotsBaromVisibWave heightAir tempDewpointWater temp
2017-May-28 17:42N 09°15' W 079°54'0 0.3
2017-May-28 17:29N 09°15' W 079°54'0 0.1
2017-May-28 16:59N 09°15' W 079°54'0 0.1
2017-May-28 16:29N 09°15' W 079°54'0 0.0
2017-May-28 15:56N 09°15' W 079°54'12 0.7
2017-May-27 22:31N 09°26' W 079°57'0 0.1
2017-May-27 22:30N 09°26' W 079°57'1 2.8
2017-May-27 22:00N 09°28' W 079°57'3 5.8
2017-May-27 21:30N 09°30' W 079°55'4 8.4
2017-May-27 21:00N 09°34' W 079°53'510.5
2017-May-27 20:30N 09°39' W 079°52'  
2017-May-21 09:08N 39°23' W 072°29'717.6
2017-May-21 08:45N 39°28' W 072°36'917.4
2017-May-21 08:15N 39°33' W 072°44'917.9
2017-May-21 07:46N 39°40' W 072°52'717.9
2017-May-21 07:24N 39°44' W 072°58'1418.0
2017-May-21 06:37N 39°55' W 073°10'218.2
2017-May-21 06:29N 39°56' W 073°12'918.1
2017-May-21 06:00N 40°03' W 073°20'918.0
2017-May-21 05:30N 40°09' W 073°29'1018.2
2017-May-21 04:58N 40°16' W 073°37'918.9
2017-May-21 04:30N 40°23' W 073°45'713.3
2017-May-21 04:00N 40°28' W 073°50'917.6
2017-May-21 03:30N 40°32' W 074°01'816.0
2017-May-21 03:00N 40°39' W 074°05'3 6.2
2017-May-21 02:30N 40°39' W 074°09'2 3.2
2017-May-21 02:00N 40°40' W 074°08'0 0.0
2017-May-21 01:28N 40°40' W 074°08'0 0.0
2017-May-21 00:58N 40°40' W 074°08'0 0.0
2017-May-21 00:28N 40°40' W 074°08'0 0.0
2017-May-20 23:58N 40°40' W 074°08'0 0.0
2017-May-20 23:28N 40°40' W 074°08'0 0.0
2017-May-20 22:58N 40°40' W 074°08'0 0.0
2017-May-20 22:28N 40°40' W 074°08'0 0.0
2017-May-20 21:58N 40°40' W 074°08'0 0.0
2017-May-20 21:28N 40°40' W 074°08'0 0.0
2017-May-20 20:58N 40°40' W 074°08'0 0.0
2017-May-20 20:28N 40°40' W 074°08'0 0.0
2017-May-20 19:58N 40°40' W 074°08'0 0.0
2017-May-20 19:28N 40°40' W 074°08'0 0.0
2017-May-20 18:58N 40°40' W 074°08'0 0.0
2017-May-20 18:28N 40°40' W 074°08'0 0.0
2017-May-20 17:58N 40°40' W 074°08'0 0.0
2017-May-20 17:28N 40°40' W 074°08'0 0.0
2017-May-20 16:58N 40°40' W 074°08'0 0.0
2017-May-20 16:28N 40°40' W 074°08'0 0.0
2017-May-20 15:58N 40°40' W 074°08'0 0.0
2017-May-20 15:28N 40°40' W 074°08'0 0.0
2017-May-20 14:58N 40°40' W 074°08'0 0.0
2017-May-20 14:28N 40°40' W 074°08'0 0.0
2017-May-20 13:28N 40°40' W 074°08'0 0.0
2017-May-20 12:58N 40°40' W 074°08'0 0.0
2017-May-20 12:28N 40°40' W 074°08'0 0.0
2017-May-20 11:58N 40°40' W 074°08'0 0.0
2017-May-20 11:28N 40°40' W 074°08'0 0.0
2017-May-20 10:58N 40°40' W 074°08'0 0.0
2017-May-20 10:28N 40°40' W 074°08'0 0.0
2017-May-20 09:58N 40°40' W 074°08'0 0.0
2017-May-20 09:28N 40°40' W 074°08'0 0.0
2017-May-20 08:58N 40°40' W 074°08'0 0.0
2017-May-20 08:28N 40°40' W 074°08'0 0.0
2017-May-20 07:58N 40°40' W 074°08'0 0.0
2017-May-20 07:28N 40°40' W 074°08'0 0.0
2017-May-20 06:58N 40°40' W 074°08'0 0.0
2017-May-20 06:28N 40°40' W 074°08'0 0.0
2017-May-20 05:58N 40°40' W 074°08'0 0.0
2017-May-20 05:28N 40°40' W 074°08'0 0.0
2017-May-20 04:58N 40°40' W 074°08'0 0.0
2017-May-20 04:28N 40°40' W 074°08'0 0.0
2017-May-20 03:58N 40°40' W 074°08'0 0.0
2017-May-20 03:28N 40°40' W 074°08'0 0.0
2017-May-20 02:58N 40°40' W 074°08'0 0.0
2017-May-20 02:28N 40°40' W 074°08'0 0.0
2017-May-20 01:58N 40°40' W 074°08'0 0.0
2017-May-20 01:28N 40°40' W 074°08'0 0.0
2017-May-20 00:58N 40°40' W 074°08'0 0.0
2017-May-20 00:28N 40°40' W 074°08'0 0.0
2017-May-19 23:58N 40°40' W 074°08'0 0.0
2017-May-19 23:28N 40°40' W 074°08'0 0.0
2017-May-19 22:58N 40°40' W 074°08'0 0.0
2017-May-19 22:28N 40°40' W 074°08'0 0.0
2017-May-19 22:01N 40°40' W 074°08'2 3.6
2017-May-19 21:30N 40°39' W 074°09'3 6.4
2017-May-19 21:01N 40°39' W 074°05'4 8.3
2017-May-19 20:31N 40°35' W 074°02'5 9.4
2017-May-19 20:01N 40°31' W 073°59'3 6.6
2017-May-19 19:31N 40°30' W 073°56'611.6
2017-May-19 19:00N 40°27' W 073°49'5 9.0
2017-May-19 18:30N 40°23' W 073°47'510.4
2017-May-19 18:00N 40°17' W 073°46'612.4
2017-May-19 17:30N 40°11' W 073°45'713.8
2017-May-19 17:00N 40°05' W 073°44'917.7
2017-May-19 16:29N 39°55' W 073°42'1020.2
2017-May-19 16:00N 39°46' W 073°41'1120.5
2017-May-19 15:29N 39°35' W 073°42'1220.8
2017-May-19 14:55N 39°23' W 073°44'2120.4
2017-May-19 13:52N 39°03' W 073°51'820.3
2017-May-19 13:29N 38°56' W 073°55'1020.5
2017-May-19 13:01N 38°47' W 074°01'1520.6
2017-May-19 12:16N 38°33' W 074°10'620.5
2017-May-19 11:58N 38°28' W 074°13'12020.5
2017-May-19 06:08N 36°49' W 075°37'521.0
2017-May-19 05:54N 36°49' W 075°44'819.8
2017-May-19 05:30N 36°52' W 075°52'917.0
2017-May-19 05:00N 36°57' W 076°01'713.0
2017-May-19 04:30N 36°59' W 076°09'912.9
2017-May-19 03:49N 36°58' W 076°20'3 9.5
2017-May-19 03:30N 36°55' W 076°20'4 7.4
2017-May-19 03:00N 36°52' W 076°19'0 0.5
2017-May-19 02:28N 36°51' W 076°19'0 0.0
2017-May-19 01:58N 36°51' W 076°19'0 0.0
2017-May-19 01:28N 36°51' W 076°19'0 0.0
2017-May-19 00:58N 36°51' W 076°19'0 0.0
2017-May-19 00:28N 36°51' W 076°19'0 0.0
2017-May-18 23:58N 36°51' W 076°19'0 0.0
2017-May-18 23:28N 36°51' W 076°19'0 0.0
2017-May-18 22:58N 36°51' W 076°19'0 0.0
2017-May-18 22:28N 36°51' W 076°19'0 0.0
2017-May-18 21:55N 36°51' W 076°19'0 0.0
2017-May-18 21:28N 36°51' W 076°19'0 0.0
2017-May-18 20:58N 36°51' W 076°19'0 0.0
2017-May-18 20:28N 36°51' W 076°19'0 0.0
2017-May-18 19:58N 36°51' W 076°19'0 0.0
2017-May-18 19:28N 36°51' W 076°19'0 0.0
2017-May-18 18:58N 36°51' W 076°19'0 0.0
2017-May-18 18:28N 36°51' W 076°19'0 0.0
2017-May-18 17:58N 36°51' W 076°19'  

Dump ship's entire track history